sensor_id;sensor_type;location;lat;lon;timestamp;P1;durP1;ratioP1;P2;durP2;ratioP2
74707;SDS011;63360;50.104;8.074;2023-07-31T00:01:01;3.28;;;1.25;;
74707;SDS011;63360;50.104;8.074;2023-07-31T00:03:28;6.50;;;1.40;;
74707;SDS011;63360;50.104;8.074;2023-07-31T00:05:55;4.35;;;1.30;;
74707;SDS011;63360;50.104;8.074;2023-07-31T00:08:21;4.97;;;1.43;;
74707;SDS011;63360;50.104;8.074;2023-07-31T00:10:50;5.57;;;1.23;;
74707;SDS011;63360;50.104;8.074;2023-07-31T00:13:18;5.22;;;1.20;;
74707;SDS011;63360;50.104;8.074;2023-07-31T00:15:44;3.22;;;1.27;;
74707;SDS011;63360;50.104;8.074;2023-07-31T00:18:11;4.25;;;1.27;;
74707;SDS011;63360;50.104;8.074;2023-07-31T00:20:37;4.47;;;1.23;;
74707;SDS011;63360;50.104;8.074;2023-07-31T00:23:04;3.92;;;1.40;;
74707;SDS011;63360;50.104;8.074;2023-07-31T00:25:30;5.72;;;1.30;;
74707;SDS011;63360;50.104;8.074;2023-07-31T00:27:56;4.05;;;1.27;;
74707;SDS011;63360;50.104;8.074;2023-07-31T00:30:23;3.38;;;1.20;;
74707;SDS011;63360;50.104;8.074;2023-07-31T00:32:51;8.77;;;1.60;;
74707;SDS011;63360;50.104;8.074;2023-07-31T00:35:17;7.13;;;1.45;;
74707;SDS011;63360;50.104;8.074;2023-07-31T00:37:44;4.97;;;1.48;;
74707;SDS011;63360;50.104;8.074;2023-07-31T00:40:10;3.53;;;1.25;;
74707;SDS011;63360;50.104;8.074;2023-07-31T00:42:37;4.95;;;1.42;;
74707;SDS011;63360;50.104;8.074;2023-07-31T00:45:03;5.20;;;1.40;;
74707;SDS011;63360;50.104;8.074;2023-07-31T00:47:30;3.80;;;1.50;;
74707;SDS011;63360;50.104;8.074;2023-07-31T00:49:57;4.35;;;1.38;;
74707;SDS011;63360;50.104;8.074;2023-07-31T00:52:24;5.75;;;1.60;;
74707;SDS011;63360;50.104;8.074;2023-07-31T00:54:50;4.05;;;1.20;;
74707;SDS011;63360;50.104;8.074;2023-07-31T00:57:17;5.67;;;1.70;;
74707;SDS011;63360;50.104;8.074;2023-07-31T00:59:43;4.45;;;1.60;;
74707;SDS011;63360;50.104;8.074;2023-07-31T01:02:10;4.82;;;1.27;;
74707;SDS011;63360;50.104;8.074;2023-07-31T01:04:36;3.78;;;1.65;;
74707;SDS011;63360;50.104;8.074;2023-07-31T01:09:36;4.63;;;1.40;;
74707;SDS011;63360;50.104;8.074;2023-07-31T01:12:09;5.00;;;1.35;;
74707;SDS011;63360;50.104;8.074;2023-07-31T01:14:40;7.18;;;2.00;;
74707;SDS011;63360;50.104;8.074;2023-07-31T01:17:06;5.20;;;1.42;;
74707;SDS011;63360;50.104;8.074;2023-07-31T01:19:33;4.63;;;1.35;;
74707;SDS011;63360;50.104;8.074;2023-07-31T01:22:16;4.00;;;1.60;;
74707;SDS011;63360;50.104;8.074;2023-07-31T01:28:02;5.85;;;1.50;;
74707;SDS011;63360;50.104;8.074;2023-07-31T01:30:32;5.15;;;1.48;;
74707;SDS011;63360;50.104;8.074;2023-07-31T01:33:02;6.18;;;1.50;;
74707;SDS011;63360;50.104;8.074;2023-07-31T01:35:36;4.57;;;1.67;;
74707;SDS011;63360;50.104;8.074;2023-07-31T01:38:04;4.63;;;1.38;;
74707;SDS011;63360;50.104;8.074;2023-07-31T01:40:31;5.93;;;1.50;;
74707;SDS011;63360;50.104;8.074;2023-07-31T01:42:58;4.70;;;1.67;;
74707;SDS011;63360;50.104;8.074;2023-07-31T01:45:24;5.00;;;1.48;;
74707;SDS011;63360;50.104;8.074;2023-07-31T01:47:51;5.37;;;1.37;;
74707;SDS011;63360;50.104;8.074;2023-07-31T01:50:17;7.15;;;1.60;;
74707;SDS011;63360;50.104;8.074;2023-07-31T01:52:44;5.55;;;1.55;;
74707;SDS011;63360;50.104;8.074;2023-07-31T01:55:10;3.83;;;1.50;;
74707;SDS011;63360;50.104;8.074;2023-07-31T01:57:37;4.38;;;1.60;;
74707;SDS011;63360;50.104;8.074;2023-07-31T02:00:04;4.33;;;1.53;;
74707;SDS011;63360;50.104;8.074;2023-07-31T02:02:31;5.88;;;1.40;;
74707;SDS011;63360;50.104;8.074;2023-07-31T02:04:58;5.03;;;1.42;;
74707;SDS011;63360;50.104;8.074;2023-07-31T02:07:24;4.82;;;1.60;;
74707;SDS011;63360;50.104;8.074;2023-07-31T02:09:50;4.65;;;1.60;;
74707;SDS011;63360;50.104;8.074;2023-07-31T02:12:17;5.33;;;1.50;;
74707;SDS011;63360;50.104;8.074;2023-07-31T02:14:43;5.30;;;1.55;;
74707;SDS011;63360;50.104;8.074;2023-07-31T02:17:10;6.65;;;1.42;;
74707;SDS011;63360;50.104;8.074;2023-07-31T02:19:36;2.72;;;1.30;;
74707;SDS011;63360;50.104;8.074;2023-07-31T02:22:03;4.68;;;1.38;;
74707;SDS011;63360;50.104;8.074;2023-07-31T02:24:29;2.97;;;1.00;;
74707;SDS011;63360;50.104;8.074;2023-07-31T02:26:58;3.75;;;1.15;;
74707;SDS011;63360;50.104;8.074;2023-07-31T02:29:24;3.65;;;1.20;;
74707;SDS011;63360;50.104;8.074;2023-07-31T02:31:51;3.47;;;1.33;;
74707;SDS011;63360;50.104;8.074;2023-07-31T02:34:17;4.90;;;1.25;;
74707;SDS011;63360;50.104;8.074;2023-07-31T02:36:43;3.47;;;1.20;;
74707;SDS011;63360;50.104;8.074;2023-07-31T02:39:10;3.22;;;1.05;;
74707;SDS011;63360;50.104;8.074;2023-07-31T02:41:36;5.25;;;1.13;;
74707;SDS011;63360;50.104;8.074;2023-07-31T02:44:03;3.00;;;1.20;;
74707;SDS011;63360;50.104;8.074;2023-07-31T02:46:29;4.30;;;1.20;;
74707;SDS011;63360;50.104;8.074;2023-07-31T02:48:56;3.00;;;1.03;;
74707;SDS011;63360;50.104;8.074;2023-07-31T02:51:22;2.45;;;1.02;;
74707;SDS011;63360;50.104;8.074;2023-07-31T02:53:49;2.75;;;1.02;;
74707;SDS011;63360;50.104;8.074;2023-07-31T02:56:15;3.05;;;1.10;;
74707;SDS011;63360;50.104;8.074;2023-07-31T02:58:42;3.95;;;1.35;;
74707;SDS011;63360;50.104;8.074;2023-07-31T03:01:08;3.30;;;1.30;;
74707;SDS011;63360;50.104;8.074;2023-07-31T03:03:35;5.10;;;1.20;;
74707;SDS011;63360;50.104;8.074;2023-07-31T03:06:02;3.35;;;1.20;;
74707;SDS011;63360;50.104;8.074;2023-07-31T03:08:28;3.70;;;1.17;;
74707;SDS011;63360;50.104;8.074;2023-07-31T03:10:56;4.43;;;1.33;;
74707;SDS011;63360;50.104;8.074;2023-07-31T03:13:23;2.57;;;0.97;;
74707;SDS011;63360;50.104;8.074;2023-07-31T03:15:49;3.03;;;1.00;;
74707;SDS011;63360;50.104;8.074;2023-07-31T03:18:16;4.82;;;1.20;;
74707;SDS011;63360;50.104;8.074;2023-07-31T03:20:43;4.13;;;1.25;;
74707;SDS011;63360;50.104;8.074;2023-07-31T03:23:10;5.88;;;1.20;;
74707;SDS011;63360;50.104;8.074;2023-07-31T03:25:37;3.67;;;1.30;;
74707;SDS011;63360;50.104;8.074;2023-07-31T03:28:03;3.88;;;1.50;;
74707;SDS011;63360;50.104;8.074;2023-07-31T03:30:30;4.95;;;1.40;;
74707;SDS011;63360;50.104;8.074;2023-07-31T03:32:56;3.95;;;1.42;;
74707;SDS011;63360;50.104;8.074;2023-07-31T03:35:23;3.47;;;1.30;;
74707;SDS011;63360;50.104;8.074;2023-07-31T03:37:49;5.53;;;1.30;;
74707;SDS011;63360;50.104;8.074;2023-07-31T03:40:16;4.57;;;1.30;;
74707;SDS011;63360;50.104;8.074;2023-07-31T03:42:42;4.45;;;1.40;;
74707;SDS011;63360;50.104;8.074;2023-07-31T03:45:09;5.15;;;1.67;;
74707;SDS011;63360;50.104;8.074;2023-07-31T03:47:36;2.90;;;1.40;;
74707;SDS011;63360;50.104;8.074;2023-07-31T03:50:02;3.93;;;1.13;;
74707;SDS011;63360;50.104;8.074;2023-07-31T03:52:29;4.97;;;1.30;;
74707;SDS011;63360;50.104;8.074;2023-07-31T03:54:55;3.40;;;1.38;;
74707;SDS011;63360;50.104;8.074;2023-07-31T03:57:22;4.70;;;1.17;;
74707;SDS011;63360;50.104;8.074;2023-07-31T03:59:49;4.55;;;1.50;;
74707;SDS011;63360;50.104;8.074;2023-07-31T04:02:15;4.47;;;1.40;;
74707;SDS011;63360;50.104;8.074;2023-07-31T04:04:42;5.65;;;1.50;;
74707;SDS011;63360;50.104;8.074;2023-07-31T04:07:09;5.70;;;1.50;;
74707;SDS011;63360;50.104;8.074;2023-07-31T04:09:35;4.95;;;1.23;;
74707;SDS011;63360;50.104;8.074;2023-07-31T04:12:01;4.53;;;1.40;;
74707;SDS011;63360;50.104;8.074;2023-07-31T04:14:28;3.43;;;1.20;;
74707;SDS011;63360;50.104;8.074;2023-07-31T04:16:54;5.68;;;1.40;;
74707;SDS011;63360;50.104;8.074;2023-07-31T04:19:21;5.00;;;1.23;;
74707;SDS011;63360;50.104;8.074;2023-07-31T04:21:47;3.85;;;1.20;;
74707;SDS011;63360;50.104;8.074;2023-07-31T04:24:14;3.55;;;1.30;;
74707;SDS011;63360;50.104;8.074;2023-07-31T04:26:40;4.30;;;1.60;;
74707;SDS011;63360;50.104;8.074;2023-07-31T04:29:07;6.60;;;1.60;;
74707;SDS011;63360;50.104;8.074;2023-07-31T04:31:34;5.55;;;1.40;;
74707;SDS011;63360;50.104;8.074;2023-07-31T04:34:04;3.65;;;1.25;;
74707;SDS011;63360;50.104;8.074;2023-07-31T04:36:31;7.28;;;1.52;;
74707;SDS011;63360;50.104;8.074;2023-07-31T04:38:59;3.97;;;1.47;;
74707;SDS011;63360;50.104;8.074;2023-07-31T04:41:25;4.28;;;1.30;;
74707;SDS011;63360;50.104;8.074;2023-07-31T04:43:52;6.05;;;1.48;;
74707;SDS011;63360;50.104;8.074;2023-07-31T04:46:19;4.45;;;1.70;;
74707;SDS011;63360;50.104;8.074;2023-07-31T04:48:45;5.03;;;1.58;;
74707;SDS011;63360;50.104;8.074;2023-07-31T04:51:12;4.87;;;1.40;;
74707;SDS011;63360;50.104;8.074;2023-07-31T04:53:38;3.20;;;1.50;;
74707;SDS011;63360;50.104;8.074;2023-07-31T04:56:04;3.67;;;1.30;;
74707;SDS011;63360;50.104;8.074;2023-07-31T04:58:31;4.05;;;1.45;;
74707;SDS011;63360;50.104;8.074;2023-07-31T05:00:57;3.33;;;1.40;;
74707;SDS011;63360;50.104;8.074;2023-07-31T05:03:24;4.80;;;1.27;;
74707;SDS011;63360;50.104;8.074;2023-07-31T05:05:51;4.65;;;1.55;;
74707;SDS011;63360;50.104;8.074;2023-07-31T05:08:17;5.00;;;1.70;;
74707;SDS011;63360;50.104;8.074;2023-07-31T05:10:43;7.82;;;1.33;;
74707;SDS011;63360;50.104;8.074;2023-07-31T05:13:10;4.45;;;1.50;;
74707;SDS011;63360;50.104;8.074;2023-07-31T05:15:36;5.23;;;1.70;;
74707;SDS011;63360;50.104;8.074;2023-07-31T05:18:03;6.05;;;1.60;;
74707;SDS011;63360;50.104;8.074;2023-07-31T05:20:29;4.75;;;1.58;;
74707;SDS011;63360;50.104;8.074;2023-07-31T05:22:56;5.32;;;1.55;;
74707;SDS011;63360;50.104;8.074;2023-07-31T05:25:22;3.35;;;1.50;;
74707;SDS011;63360;50.104;8.074;2023-07-31T05:27:49;3.63;;;1.60;;
74707;SDS011;63360;50.104;8.074;2023-07-31T05:30:15;5.00;;;1.70;;
74707;SDS011;63360;50.104;8.074;2023-07-31T05:32:41;6.28;;;1.60;;
74707;SDS011;63360;50.104;8.074;2023-07-31T05:35:08;4.57;;;1.58;;
74707;SDS011;63360;50.104;8.074;2023-07-31T05:37:35;5.25;;;1.80;;
74707;SDS011;63360;50.104;8.074;2023-07-31T05:40:01;4.35;;;1.80;;
74707;SDS011;63360;50.104;8.074;2023-07-31T05:42:28;5.47;;;1.75;;
74707;SDS011;63360;50.104;8.074;2023-07-31T05:44:55;6.30;;;1.58;;
74707;SDS011;63360;50.104;8.074;2023-07-31T05:47:21;4.22;;;1.50;;
74707;SDS011;63360;50.104;8.074;2023-07-31T05:49:48;8.55;;;1.80;;
74707;SDS011;63360;50.104;8.074;2023-07-31T05:52:15;6.90;;;1.80;;
74707;SDS011;63360;50.104;8.074;2023-07-31T05:54:42;5.10;;;1.73;;
74707;SDS011;63360;50.104;8.074;2023-07-31T05:57:08;7.90;;;1.70;;
74707;SDS011;63360;50.104;8.074;2023-07-31T05:59:35;5.88;;;1.67;;
74707;SDS011;63360;50.104;8.074;2023-07-31T06:02:01;5.30;;;1.85;;
74707;SDS011;63360;50.104;8.074;2023-07-31T06:04:28;4.50;;;1.77;;
74707;SDS011;63360;50.104;8.074;2023-07-31T06:06:56;5.72;;;2.00;;
74707;SDS011;63360;50.104;8.074;2023-07-31T06:09:22;6.15;;;1.90;;
74707;SDS011;63360;50.104;8.074;2023-07-31T06:11:49;5.70;;;2.00;;
74707;SDS011;63360;50.104;8.074;2023-07-31T06:14:16;6.82;;;1.98;;
74707;SDS011;63360;50.104;8.074;2023-07-31T06:16:43;6.50;;;2.03;;
74707;SDS011;63360;50.104;8.074;2023-07-31T06:19:10;5.90;;;2.10;;
74707;SDS011;63360;50.104;8.074;2023-07-31T06:21:36;6.22;;;2.25;;
74707;SDS011;63360;50.104;8.074;2023-07-31T06:24:04;5.28;;;2.15;;
74707;SDS011;63360;50.104;8.074;2023-07-31T06:26:31;4.80;;;1.90;;
74707;SDS011;63360;50.104;8.074;2023-07-31T06:28:58;5.20;;;1.80;;
74707;SDS011;63360;50.104;8.074;2023-07-31T06:31:24;5.72;;;1.80;;
74707;SDS011;63360;50.104;8.074;2023-07-31T06:33:51;6.70;;;1.52;;
74707;SDS011;63360;50.104;8.074;2023-07-31T06:36:18;5.35;;;2.03;;
74707;SDS011;63360;50.104;8.074;2023-07-31T06:38:45;5.72;;;1.98;;
74707;SDS011;63360;50.104;8.074;2023-07-31T06:41:11;4.83;;;1.50;;
74707;SDS011;63360;50.104;8.074;2023-07-31T06:43:37;8.05;;;2.33;;
74707;SDS011;63360;50.104;8.074;2023-07-31T06:46:05;4.05;;;1.67;;
74707;SDS011;63360;50.104;8.074;2023-07-31T06:48:33;7.85;;;2.10;;
74707;SDS011;63360;50.104;8.074;2023-07-31T06:51:00;5.13;;;2.00;;
74707;SDS011;63360;50.104;8.074;2023-07-31T06:53:27;5.13;;;1.70;;
74707;SDS011;63360;50.104;8.074;2023-07-31T06:55:54;5.97;;;1.95;;
74707;SDS011;63360;50.104;8.074;2023-07-31T06:58:21;5.68;;;1.65;;
74707;SDS011;63360;50.104;8.074;2023-07-31T07:00:47;4.72;;;1.77;;
74707;SDS011;63360;50.104;8.074;2023-07-31T07:03:17;3.67;;;1.63;;
74707;SDS011;63360;50.104;8.074;2023-07-31T07:05:44;5.07;;;1.90;;
74707;SDS011;63360;50.104;8.074;2023-07-31T07:08:11;6.88;;;1.80;;
74707;SDS011;63360;50.104;8.074;2023-07-31T07:10:37;5.38;;;1.67;;
74707;SDS011;63360;50.104;8.074;2023-07-31T07:13:04;6.40;;;2.08;;
74707;SDS011;63360;50.104;8.074;2023-07-31T07:15:30;5.72;;;1.50;;
74707;SDS011;63360;50.104;8.074;2023-07-31T07:17:57;4.57;;;1.70;;
74707;SDS011;63360;50.104;8.074;2023-07-31T07:20:23;4.93;;;1.77;;
74707;SDS011;63360;50.104;8.074;2023-07-31T07:22:50;4.60;;;1.70;;
74707;SDS011;63360;50.104;8.074;2023-07-31T07:25:16;5.60;;;1.80;;
74707;SDS011;63360;50.104;8.074;2023-07-31T07:27:43;5.65;;;1.90;;
74707;SDS011;63360;50.104;8.074;2023-07-31T07:30:09;4.50;;;1.97;;
74707;SDS011;63360;50.104;8.074;2023-07-31T07:32:36;5.88;;;1.90;;
74707;SDS011;63360;50.104;8.074;2023-07-31T07:35:03;5.97;;;1.70;;
74707;SDS011;63360;50.104;8.074;2023-07-31T07:37:30;5.38;;;1.88;;
74707;SDS011;63360;50.104;8.074;2023-07-31T07:39:58;5.97;;;1.80;;
74707;SDS011;63360;50.104;8.074;2023-07-31T07:42:25;5.60;;;1.80;;
74707;SDS011;63360;50.104;8.074;2023-07-31T07:44:51;8.13;;;2.00;;
74707;SDS011;63360;50.104;8.074;2023-07-31T07:47:18;9.55;;;2.08;;
74707;SDS011;63360;50.104;8.074;2023-07-31T07:49:44;6.07;;;1.77;;
74707;SDS011;63360;50.104;8.074;2023-07-31T07:52:18;5.72;;;1.70;;
74707;SDS011;63360;50.104;8.074;2023-07-31T07:54:44;6.87;;;1.83;;
74707;SDS011;63360;50.104;8.074;2023-07-31T07:57:11;4.13;;;1.70;;
74707;SDS011;63360;50.104;8.074;2023-07-31T07:59:37;4.90;;;1.90;;
74707;SDS011;63360;50.104;8.074;2023-07-31T08:02:04;5.43;;;1.63;;
74707;SDS011;63360;50.104;8.074;2023-07-31T08:04:30;4.93;;;1.52;;
74707;SDS011;63360;50.104;8.074;2023-07-31T08:06:57;8.00;;;1.87;;
74707;SDS011;63360;50.104;8.074;2023-07-31T08:09:23;5.68;;;1.80;;
74707;SDS011;63360;50.104;8.074;2023-07-31T08:11:50;4.07;;;1.55;;
74707;SDS011;63360;50.104;8.074;2023-07-31T08:14:16;5.75;;;2.17;;
74707;SDS011;63360;50.104;8.074;2023-07-31T08:16:42;6.05;;;1.85;;
74707;SDS011;63360;50.104;8.074;2023-07-31T08:19:09;6.20;;;1.90;;
74707;SDS011;63360;50.104;8.074;2023-07-31T08:21:36;6.90;;;1.75;;
74707;SDS011;63360;50.104;8.074;2023-07-31T08:24:02;7.97;;;1.90;;
74707;SDS011;63360;50.104;8.074;2023-07-31T08:26:29;6.03;;;1.60;;
74707;SDS011;63360;50.104;8.074;2023-07-31T08:28:55;4.53;;;1.77;;
74707;SDS011;63360;50.104;8.074;2023-07-31T08:31:22;4.67;;;1.80;;
74707;SDS011;63360;50.104;8.074;2023-07-31T08:33:48;4.70;;;1.63;;
74707;SDS011;63360;50.104;8.074;2023-07-31T08:36:15;6.05;;;1.60;;
74707;SDS011;63360;50.104;8.074;2023-07-31T08:38:41;5.43;;;1.80;;
74707;SDS011;63360;50.104;8.074;2023-07-31T08:41:08;6.45;;;1.63;;
74707;SDS011;63360;50.104;8.074;2023-07-31T08:43:35;4.87;;;1.70;;
74707;SDS011;63360;50.104;8.074;2023-07-31T08:46:03;7.80;;;2.15;;
74707;SDS011;63360;50.104;8.074;2023-07-31T08:48:32;4.93;;;2.05;;
74707;SDS011;63360;50.104;8.074;2023-07-31T08:50:59;5.70;;;1.88;;
74707;SDS011;63360;50.104;8.074;2023-07-31T08:53:25;5.65;;;1.92;;
74707;SDS011;63360;50.104;8.074;2023-07-31T08:55:52;4.47;;;1.80;;
74707;SDS011;63360;50.104;8.074;2023-07-31T08:58:20;7.53;;;2.00;;
74707;SDS011;63360;50.104;8.074;2023-07-31T09:00:47;6.55;;;2.03;;
74707;SDS011;63360;50.104;8.074;2023-07-31T09:03:14;5.88;;;1.98;;
74707;SDS011;63360;50.104;8.074;2023-07-31T09:05:43;5.80;;;2.35;;
74707;SDS011;63360;50.104;8.074;2023-07-31T09:08:15;5.50;;;1.87;;
74707;SDS011;63360;50.104;8.074;2023-07-31T09:10:45;6.50;;;1.52;;
74707;SDS011;63360;50.104;8.074;2023-07-31T09:13:13;5.45;;;1.70;;
74707;SDS011;63360;50.104;8.074;2023-07-31T09:15:40;6.38;;;1.70;;
74707;SDS011;63360;50.104;8.074;2023-07-31T09:18:10;5.10;;;1.90;;
74707;SDS011;63360;50.104;8.074;2023-07-31T09:20:37;5.33;;;1.80;;
74707;SDS011;63360;50.104;8.074;2023-07-31T09:23:07;4.78;;;1.77;;
74707;SDS011;63360;50.104;8.074;2023-07-31T09:25:39;4.25;;;1.42;;
74707;SDS011;63360;50.104;8.074;2023-07-31T09:28:10;4.18;;;1.65;;
74707;SDS011;63360;50.104;8.074;2023-07-31T09:30:50;4.57;;;1.60;;
74707;SDS011;63360;50.104;8.074;2023-07-31T09:33:17;3.50;;;1.57;;
74707;SDS011;63360;50.104;8.074;2023-07-31T09:35:45;5.15;;;1.80;;
74707;SDS011;63360;50.104;8.074;2023-07-31T09:38:14;5.15;;;1.63;;
74707;SDS011;63360;50.104;8.074;2023-07-31T09:40:42;3.97;;;1.67;;
74707;SDS011;63360;50.104;8.074;2023-07-31T09:43:11;6.30;;;1.92;;
74707;SDS011;63360;50.104;8.074;2023-07-31T09:45:39;4.10;;;1.70;;
74707;SDS011;63360;50.104;8.074;2023-07-31T09:48:08;5.60;;;1.42;;
74707;SDS011;63360;50.104;8.074;2023-07-31T09:50:37;5.30;;;1.90;;
74707;SDS011;63360;50.104;8.074;2023-07-31T09:53:05;5.22;;;1.77;;
74707;SDS011;63360;50.104;8.074;2023-07-31T09:55:33;4.70;;;1.77;;
74707;SDS011;63360;50.104;8.074;2023-07-31T09:58:04;4.80;;;1.70;;
74707;SDS011;63360;50.104;8.074;2023-07-31T10:00:32;7.03;;;2.22;;
74707;SDS011;63360;50.104;8.074;2023-07-31T10:03:01;3.63;;;1.77;;
74707;SDS011;63360;50.104;8.074;2023-07-31T10:05:31;6.72;;;1.90;;
74707;SDS011;63360;50.104;8.074;2023-07-31T10:08:00;5.18;;;1.73;;
74707;SDS011;63360;50.104;8.074;2023-07-31T10:10:27;5.17;;;1.80;;
74707;SDS011;63360;50.104;8.074;2023-07-31T10:12:54;4.72;;;1.73;;
74707;SDS011;63360;50.104;8.074;2023-07-31T10:15:22;4.60;;;1.80;;
74707;SDS011;63360;50.104;8.074;2023-07-31T10:17:51;4.60;;;1.92;;
74707;SDS011;63360;50.104;8.074;2023-07-31T10:20:18;4.50;;;1.70;;
74707;SDS011;63360;50.104;8.074;2023-07-31T10:22:44;4.00;;;1.70;;
74707;SDS011;63360;50.104;8.074;2023-07-31T10:25:15;5.40;;;1.90;;
74707;SDS011;63360;50.104;8.074;2023-07-31T10:27:42;7.80;;;2.03;;
74707;SDS011;63360;50.104;8.074;2023-07-31T10:30:09;5.68;;;1.90;;
74707;SDS011;63360;50.104;8.074;2023-07-31T10:32:43;8.85;;;2.00;;
74707;SDS011;63360;50.104;8.074;2023-07-31T10:35:11;4.17;;;1.70;;
74707;SDS011;63360;50.104;8.074;2023-07-31T10:37:42;3.97;;;1.67;;
74707;SDS011;63360;50.104;8.074;2023-07-31T10:40:10;4.85;;;1.85;;
74707;SDS011;63360;50.104;8.074;2023-07-31T10:42:45;6.78;;;1.95;;
74707;SDS011;63360;50.104;8.074;2023-07-31T10:45:13;3.60;;;1.50;;
74707;SDS011;63360;50.104;8.074;2023-07-31T10:47:49;4.53;;;1.60;;
74707;SDS011;63360;50.104;8.074;2023-07-31T10:50:16;4.43;;;1.60;;
74707;SDS011;63360;50.104;8.074;2023-07-31T10:52:48;5.30;;;1.90;;
74707;SDS011;63360;50.104;8.074;2023-07-31T10:55:31;2.55;;;1.30;;
74707;SDS011;63360;50.104;8.074;2023-07-31T10:58:09;5.75;;;1.85;;
74707;SDS011;63360;50.104;8.074;2023-07-31T11:00:41;6.07;;;1.77;;
74707;SDS011;63360;50.104;8.074;2023-07-31T11:03:09;4.70;;;1.75;;
74707;SDS011;63360;50.104;8.074;2023-07-31T11:08:26;4.97;;;1.70;;
74707;SDS011;63360;50.104;8.074;2023-07-31T11:13:50;4.53;;;1.60;;
74707;SDS011;63360;50.104;8.074;2023-07-31T11:16:21;7.13;;;1.88;;
74707;SDS011;63360;50.104;8.074;2023-07-31T11:18:50;5.25;;;1.73;;
74707;SDS011;63360;50.104;8.074;2023-07-31T11:21:18;4.63;;;1.80;;
74707;SDS011;63360;50.104;8.074;2023-07-31T11:23:47;6.00;;;1.90;;
74707;SDS011;63360;50.104;8.074;2023-07-31T11:26:24;3.53;;;1.80;;
74707;SDS011;63360;50.104;8.074;2023-07-31T11:28:51;4.45;;;1.60;;
74707;SDS011;63360;50.104;8.074;2023-07-31T11:31:17;5.30;;;1.70;;
74707;SDS011;63360;50.104;8.074;2023-07-31T11:33:45;4.72;;;1.77;;
74707;SDS011;63360;50.104;8.074;2023-07-31T11:36:16;3.63;;;1.70;;
74707;SDS011;63360;50.104;8.074;2023-07-31T11:38:44;4.80;;;1.83;;
74707;SDS011;63360;50.104;8.074;2023-07-31T11:41:13;6.15;;;1.80;;
74707;SDS011;63360;50.104;8.074;2023-07-31T11:43:41;4.47;;;1.88;;
74707;SDS011;63360;50.104;8.074;2023-07-31T11:46:07;4.28;;;1.70;;
74707;SDS011;63360;50.104;8.074;2023-07-31T11:48:36;4.88;;;1.70;;
74707;SDS011;63360;50.104;8.074;2023-07-31T11:51:04;4.73;;;1.60;;
74707;SDS011;63360;50.104;8.074;2023-07-31T11:53:44;4.22;;;1.42;;
74707;SDS011;63360;50.104;8.074;2023-07-31T11:56:15;6.88;;;1.70;;
74707;SDS011;63360;50.104;8.074;2023-07-31T11:58:48;5.40;;;1.60;;
74707;SDS011;63360;50.104;8.074;2023-07-31T12:01:18;5.97;;;1.75;;
74707;SDS011;63360;50.104;8.074;2023-07-31T12:03:47;5.30;;;1.90;;
74707;SDS011;63360;50.104;8.074;2023-07-31T12:06:15;6.25;;;1.80;;
74707;SDS011;63360;50.104;8.074;2023-07-31T12:08:42;4.75;;;1.90;;
74707;SDS011;63360;50.104;8.074;2023-07-31T12:11:09;4.30;;;1.70;;
74707;SDS011;63360;50.104;8.074;2023-07-31T12:13:41;3.90;;;1.58;;
74707;SDS011;63360;50.104;8.074;2023-07-31T12:16:07;4.80;;;1.87;;
74707;SDS011;63360;50.104;8.074;2023-07-31T12:18:35;3.17;;;1.60;;
74707;SDS011;63360;50.104;8.074;2023-07-31T12:21:07;6.10;;;1.50;;
74707;SDS011;63360;50.104;8.074;2023-07-31T12:23:35;5.07;;;1.55;;
74707;SDS011;63360;50.104;8.074;2023-07-31T12:26:06;5.00;;;1.45;;
74707;SDS011;63360;50.104;8.074;2023-07-31T12:28:49;5.73;;;1.90;;
74707;SDS011;63360;50.104;8.074;2023-07-31T12:31:20;4.35;;;1.65;;
74707;SDS011;63360;50.104;8.074;2023-07-31T12:33:49;3.22;;;1.70;;
74707;SDS011;63360;50.104;8.074;2023-07-31T12:36:18;4.07;;;1.52;;
74707;SDS011;63360;50.104;8.074;2023-07-31T12:38:49;4.40;;;1.73;;
74707;SDS011;63360;50.104;8.074;2023-07-31T12:41:17;6.10;;;1.60;;
74707;SDS011;63360;50.104;8.074;2023-07-31T12:43:44;4.65;;;1.58;;
74707;SDS011;63360;50.104;8.074;2023-07-31T12:46:11;5.68;;;1.65;;
74707;SDS011;63360;50.104;8.074;2023-07-31T12:48:38;5.13;;;1.70;;
74707;SDS011;63360;50.104;8.074;2023-07-31T12:51:05;4.07;;;1.50;;
74707;SDS011;63360;50.104;8.074;2023-07-31T12:53:33;3.73;;;1.60;;
74707;SDS011;63360;50.104;8.074;2023-07-31T12:55:59;3.92;;;1.30;;
74707;SDS011;63360;50.104;8.074;2023-07-31T12:58:26;4.28;;;1.48;;
74707;SDS011;63360;50.104;8.074;2023-07-31T13:00:52;6.50;;;1.73;;
74707;SDS011;63360;50.104;8.074;2023-07-31T13:03:19;3.20;;;1.63;;
74707;SDS011;63360;50.104;8.074;2023-07-31T13:05:46;3.90;;;1.40;;
74707;SDS011;63360;50.104;8.074;2023-07-31T13:08:12;3.63;;;1.38;;
74707;SDS011;63360;50.104;8.074;2023-07-31T13:10:39;2.85;;;1.50;;
74707;SDS011;63360;50.104;8.074;2023-07-31T13:13:06;5.45;;;1.80;;
74707;SDS011;63360;50.104;8.074;2023-07-31T13:15:32;4.18;;;1.45;;
74707;SDS011;63360;50.104;8.074;2023-07-31T13:17:59;4.10;;;1.70;;
74707;SDS011;63360;50.104;8.074;2023-07-31T13:20:26;3.28;;;1.50;;
74707;SDS011;63360;50.104;8.074;2023-07-31T13:22:52;5.72;;;1.60;;
74707;SDS011;63360;50.104;8.074;2023-07-31T13:25:19;4.72;;;1.40;;
74707;SDS011;63360;50.104;8.074;2023-07-31T13:27:45;3.45;;;1.70;;
74707;SDS011;63360;50.104;8.074;2023-07-31T13:30:12;2.67;;;1.37;;
74707;SDS011;63360;50.104;8.074;2023-07-31T13:32:38;4.07;;;1.27;;
74707;SDS011;63360;50.104;8.074;2023-07-31T13:35:05;5.65;;;1.60;;
74707;SDS011;63360;50.104;8.074;2023-07-31T13:37:32;2.22;;;1.30;;
74707;SDS011;63360;50.104;8.074;2023-07-31T13:39:59;3.35;;;1.45;;
74707;SDS011;63360;50.104;8.074;2023-07-31T13:42:25;4.53;;;1.57;;
74707;SDS011;63360;50.104;8.074;2023-07-31T13:44:52;4.32;;;1.40;;
74707;SDS011;63360;50.104;8.074;2023-07-31T13:47:18;4.15;;;1.35;;
74707;SDS011;63360;50.104;8.074;2023-07-31T13:49:45;2.85;;;1.15;;
74707;SDS011;63360;50.104;8.074;2023-07-31T13:52:11;4.07;;;1.48;;
74707;SDS011;63360;50.104;8.074;2023-07-31T13:54:38;3.70;;;1.17;;
74707;SDS011;63360;50.104;8.074;2023-07-31T13:57:04;3.38;;;1.55;;
74707;SDS011;63360;50.104;8.074;2023-07-31T13:59:31;3.67;;;1.38;;
74707;SDS011;63360;50.104;8.074;2023-07-31T14:01:58;5.43;;;1.70;;
74707;SDS011;63360;50.104;8.074;2023-07-31T14:04:24;3.53;;;1.50;;
74707;SDS011;63360;50.104;8.074;2023-07-31T14:06:51;3.93;;;1.30;;
74707;SDS011;63360;50.104;8.074;2023-07-31T14:09:17;2.63;;;1.10;;
74707;SDS011;63360;50.104;8.074;2023-07-31T14:11:44;4.75;;;1.10;;
74707;SDS011;63360;50.104;8.074;2023-07-31T14:14:10;3.75;;;1.38;;
74707;SDS011;63360;50.104;8.074;2023-07-31T14:16:37;3.95;;;1.20;;
74707;SDS011;63360;50.104;8.074;2023-07-31T14:19:04;2.73;;;1.03;;
74707;SDS011;63360;50.104;8.074;2023-07-31T14:21:31;4.45;;;1.30;;
74707;SDS011;63360;50.104;8.074;2023-07-31T14:23:57;2.95;;;1.27;;
74707;SDS011;63360;50.104;8.074;2023-07-31T14:26:24;3.97;;;1.30;;
74707;SDS011;63360;50.104;8.074;2023-07-31T14:28:50;4.65;;;1.10;;
74707;SDS011;63360;50.104;8.074;2023-07-31T14:31:17;3.17;;;1.23;;
74707;SDS011;63360;50.104;8.074;2023-07-31T14:33:44;4.18;;;1.10;;
74707;SDS011;63360;50.104;8.074;2023-07-31T14:36:10;4.43;;;1.30;;
74707;SDS011;63360;50.104;8.074;2023-07-31T14:38:36;3.90;;;1.30;;
74707;SDS011;63360;50.104;8.074;2023-07-31T14:41:03;4.68;;;1.30;;
74707;SDS011;63360;50.104;8.074;2023-07-31T14:43:29;4.43;;;1.30;;
74707;SDS011;63360;50.104;8.074;2023-07-31T14:45:56;6.63;;;1.48;;
74707;SDS011;63360;50.104;8.074;2023-07-31T14:48:26;4.07;;;1.23;;
74707;SDS011;63360;50.104;8.074;2023-07-31T14:50:53;3.97;;;1.20;;
74707;SDS011;63360;50.104;8.074;2023-07-31T14:53:20;4.53;;;1.20;;
74707;SDS011;63360;50.104;8.074;2023-07-31T14:55:48;4.30;;;1.30;;
74707;SDS011;63360;50.104;8.074;2023-07-31T14:58:14;3.33;;;1.27;;
74707;SDS011;63360;50.104;8.074;2023-07-31T15:00:41;3.55;;;1.20;;